createdAt,value
2019-05-28T00:03:00.648Z,1.63
2019-05-28T00:07:02.808Z,1.70
2019-05-28T00:11:04.847Z,2.07
2019-05-28T00:15:07.264Z,1.80
2019-05-28T00:19:09.755Z,1.73
2019-05-28T00:23:11.851Z,1.80
2019-05-28T00:27:13.971Z,2.23
2019-05-28T00:31:17.133Z,2.40
2019-05-28T00:35:19.546Z,2.47
2019-05-28T00:39:21.631Z,2.87
2019-05-28T00:43:24.036Z,2.73
2019-05-28T00:47:26.408Z,2.63
2019-05-28T00:51:28.909Z,2.60
2019-05-28T00:55:31.147Z,2.80
2019-05-28T00:59:34.735Z,3.13
2019-05-28T01:03:36.822Z,3.50
2019-05-28T01:07:38.939Z,3.80
2019-05-28T01:11:41.129Z,3.73
2019-05-28T01:15:43.551Z,4.43
2019-05-28T01:19:45.677Z,4.90
2019-05-28T01:23:47.982Z,4.70
2019-05-28T01:27:50.121Z,5.13
2019-05-28T01:31:52.258Z,5.60
2019-05-28T01:35:54.358Z,4.97
2019-05-28T01:39:56.865Z,4.87
2019-05-28T01:43:58.908Z,5.43
2019-05-28T01:48:01.051Z,5.13
2019-05-28T01:52:03.199Z,3.90
2019-05-28T01:56:05.349Z,4.43
2019-05-28T02:00:07.918Z,3.87
2019-05-28T02:04:10.381Z,3.80
2019-05-28T02:08:12.509Z,4.97
2019-05-28T02:12:15.752Z,4.43
2019-05-28T02:16:18.103Z,4.70
2019-05-28T02:20:21.583Z,4.53
2019-05-28T02:24:23.896Z,4.77
2019-05-28T02:28:26.283Z,5.10
2019-05-28T02:32:28.144Z,4.70
2019-05-28T02:36:30.399Z,4.90
2019-05-28T02:40:32.388Z,5.17
2019-05-28T02:44:34.516Z,5.00
2019-05-28T02:48:36.635Z,5.10
2019-05-28T02:52:39.569Z,5.00
2019-05-28T02:56:43.744Z,5.10
2019-05-28T03:00:46.988Z,4.33
2019-05-28T03:04:49.449Z,4.63
2019-05-28T03:08:53.561Z,4.17
2019-05-28T03:12:55.716Z,4.27
2019-05-28T03:17:00.616Z,3.87
2019-05-28T03:21:04.475Z,4.83
2019-05-28T03:25:07.373Z,4.20
2019-05-28T03:29:09.653Z,4.37
2019-05-28T03:33:12.956Z,5.37
2019-05-28T03:37:15.415Z,5.23
2019-05-28T03:41:17.548Z,5.37
2019-05-28T03:45:19.632Z,4.97
2019-05-28T03:49:21.769Z,5.83
2019-05-28T03:53:23.921Z,5.70
2019-05-28T03:57:26.029Z,4.50
2019-05-28T04:01:28.641Z,4.30
2019-05-28T04:05:31.175Z,3.70
2019-05-28T04:09:34.026Z,4.63
2019-05-28T04:13:36.468Z,3.80
2019-05-28T04:17:38.815Z,4.23
2019-05-28T04:21:41.086Z,3.40
2019-05-28T04:25:43.180Z,4.57
2019-05-28T04:29:45.314Z,3.83
2019-05-28T04:33:47.437Z,4.50
2019-05-28T04:37:50.597Z,4.13
2019-05-28T04:41:52.772Z,3.43
2019-05-28T04:45:55.149Z,3.60
2019-05-28T04:49:57.466Z,3.83
2019-05-28T04:53:59.953Z,3.07
2019-05-28T04:58:02.080Z,2.00
2019-05-28T05:02:04.711Z,2.30
2019-05-28T05:06:07.006Z,2.70
2019-05-28T05:10:09.848Z,1.60
2019-05-28T05:14:11.899Z,1.40
2019-05-28T05:18:13.955Z,1.30
2019-05-28T05:22:15.948Z,1.50
2019-05-28T05:26:20.109Z,1.40
2019-05-28T05:30:23.589Z,1.50
2019-05-28T05:34:28.662Z,1.63
2019-05-28T05:38:30.733Z,1.60
2019-05-28T05:42:32.923Z,1.17
2019-05-28T05:46:35.086Z,1.13
2019-05-28T05:50:37.214Z,1.97
2019-05-28T05:54:39.391Z,2.90
2019-05-28T05:58:42.441Z,2.37
2019-05-28T06:02:44.472Z,2.67
2019-05-28T06:06:46.607Z,1.93
2019-05-28T06:10:48.641Z,1.43
2019-05-28T06:14:50.854Z,1.00
2019-05-28T06:18:52.998Z,0.77
2019-05-28T06:22:55.026Z,0.70
2019-05-28T06:26:57.215Z,0.70
2019-05-28T06:30:59.623Z,0.60
2019-05-28T06:35:01.746Z,0.60
2019-05-28T06:39:03.917Z,0.70
2019-05-28T06:43:05.870Z,0.50
2019-05-28T06:47:07.995Z,0.50
2019-05-28T06:51:10.134Z,0.60
2019-05-28T06:55:12.385Z,0.40
2019-05-28T06:59:14.498Z,0.40
2019-05-28T07:03:16.637Z,0.40
2019-05-28T07:07:18.752Z,0.60
2019-05-28T07:11:20.874Z,0.60
2019-05-28T07:15:24.321Z,0.70
2019-05-28T07:19:26.408Z,0.77
2019-05-28T07:23:28.479Z,0.50
2019-05-28T07:27:30.893Z,0.47
2019-05-28T07:31:32.971Z,0.60
2019-05-28T07:35:45.390Z,0.80
2019-05-28T07:39:39.072Z,0.70
2019-05-28T07:43:41.349Z,0.40
2019-05-28T07:47:43.354Z,0.70
2019-05-28T07:51:45.824Z,0.77
2019-05-28T07:55:48.180Z,0.70
2019-05-28T07:59:50.221Z,0.83
2019-05-28T08:03:52.344Z,1.20
2019-05-28T08:07:54.630Z,1.17
2019-05-28T08:11:56.807Z,1.70
2019-05-28T08:16:17.000Z,1.50
2019-05-28T08:20:02.688Z,1.60
2019-05-28T08:24:04.886Z,1.83
2019-05-28T08:28:19.178Z,2.40
2019-05-28T08:32:11.113Z,2.40
2019-05-28T08:36:13.252Z,2.53
2019-05-28T08:40:16.575Z,3.07
2019-05-28T08:44:18.542Z,3.03
2019-05-28T08:48:20.516Z,3.80
2019-05-28T08:52:22.754Z,3.30
2019-05-28T08:56:24.819Z,3.27
2019-05-28T09:00:45.946Z,2.77
2019-05-28T09:04:48.282Z,2.83
2019-05-28T09:08:50.643Z,2.70
2019-05-28T09:12:52.784Z,2.97
2019-05-28T09:16:54.902Z,2.67
2019-05-28T09:20:57.204Z,2.50
2019-05-28T09:24:59.404Z,3.17
2019-05-28T09:29:01.678Z,2.67
2019-05-28T09:33:05.017Z,2.50
2019-05-28T09:37:07.411Z,2.67
2019-05-28T09:41:09.434Z,2.40
2019-05-28T09:45:22.542Z,2.90
2019-05-28T09:49:15.942Z,2.67
2019-05-28T09:53:17.984Z,2.53
2019-05-28T09:57:19.777Z,2.20
2019-05-28T10:01:21.998Z,2.40
2019-05-28T10:05:23.988Z,2.20
2019-05-28T10:09:25.892Z,2.63
2019-05-28T10:13:38.346Z,2.37
2019-05-28T10:17:32.038Z,2.17
2019-05-28T10:21:34.223Z,1.70
2019-05-28T10:25:36.388Z,1.90
2019-05-28T10:29:38.559Z,2.00
2019-05-28T10:33:40.850Z,1.90
2019-05-28T10:37:42.987Z,1.80
2019-05-28T10:41:45.238Z,1.80
2019-05-28T10:45:47.470Z,2.20
2019-05-28T10:49:51.109Z,2.00
2019-05-28T10:53:53.339Z,1.90
2019-05-28T10:57:55.256Z,1.67
2019-05-28T11:01:57.396Z,1.60
2019-05-28T11:06:00.429Z,1.40
2019-05-28T11:10:02.595Z,1.53
2019-05-28T11:14:06.011Z,1.80
2019-05-28T11:18:08.520Z,1.10
2019-05-28T11:22:11.131Z,1.63
2019-05-28T11:26:13.251Z,1.23
2019-05-28T11:30:18.354Z,1.80
2019-05-28T11:34:20.601Z,1.63
2019-05-28T11:38:22.693Z,1.23
2019-05-28T11:42:24.818Z,1.63
2019-05-28T11:46:27.471Z,1.20
2019-05-28T11:50:29.691Z,1.37
2019-05-28T11:54:32.031Z,1.30
2019-05-28T11:58:34.144Z,1.33
2019-05-28T12:02:36.395Z,1.07
2019-05-28T12:06:38.571Z,1.30
2019-05-28T12:10:40.771Z,1.20
2019-05-28T12:14:44.057Z,1.67
2019-05-28T12:18:46.326Z,1.30
2019-05-28T12:22:48.456Z,1.17
2019-05-28T12:26:50.616Z,1.17
2019-05-28T12:30:52.619Z,1.30
2019-05-28T12:34:54.635Z,1.40
2019-05-28T12:38:56.869Z,1.30
2019-05-28T12:43:00.645Z,1.53
2019-05-28T12:47:02.752Z,1.43
2019-05-28T12:51:05.021Z,1.30
2019-05-28T12:55:07.815Z,1.60
2019-05-28T12:59:09.761Z,1.77
2019-05-28T13:03:12.572Z,1.90
2019-05-28T13:07:14.337Z,1.80
2019-05-28T13:11:16.182Z,1.80
2019-05-28T13:15:19.826Z,1.67
2019-05-28T13:19:21.577Z,1.60
2019-05-28T13:23:23.606Z,1.67
2019-05-28T13:27:25.612Z,1.50
2019-05-28T13:31:27.479Z,1.87
2019-05-28T13:35:30.011Z,1.30
2019-05-28T13:39:32.435Z,1.70
2019-05-28T13:43:34.715Z,1.60
2019-05-28T13:47:36.901Z,1.90
2019-05-28T13:51:38.998Z,1.67
2019-05-28T13:55:41.328Z,1.83
2019-05-28T13:59:43.112Z,1.43
2019-05-28T14:03:45.434Z,1.77
2019-05-28T14:07:47.198Z,1.73
2019-05-28T14:11:49.018Z,1.63
2019-05-28T14:15:50.837Z,1.80
2019-05-28T14:19:52.957Z,2.17
2019-05-28T14:23:54.707Z,1.67
2019-05-28T14:27:56.526Z,1.90
2019-05-28T14:31:58.282Z,1.97
2019-05-28T14:36:00.126Z,1.40
2019-05-28T14:40:03.014Z,2.20
2019-05-28T14:44:05.038Z,2.13
2019-05-28T14:48:06.907Z,2.00
2019-05-28T14:52:08.733Z,1.77
2019-05-28T14:56:10.739Z,2.53
2019-05-28T15:00:14.681Z,2.00
2019-05-28T15:04:16.857Z,1.53
2019-05-28T15:08:18.931Z,1.63
2019-05-28T15:12:20.906Z,1.80
2019-05-28T15:16:22.906Z,1.77
2019-05-28T15:20:25.203Z,1.67
2019-05-28T15:24:27.366Z,1.97
2019-05-28T15:28:29.348Z,2.00
2019-05-28T15:32:31.434Z,1.40
2019-05-28T15:36:33.465Z,1.97
2019-05-28T15:40:35.697Z,2.00
2019-05-28T15:44:37.993Z,1.97
2019-05-28T15:48:40.135Z,2.27
2019-05-28T15:52:42.511Z,1.60
2019-05-28T15:56:46.594Z,1.80
2019-05-28T16:00:48.911Z,1.70
2019-05-28T16:04:51.015Z,1.97
2019-05-28T16:08:53.361Z,1.90
2019-05-28T16:12:55.572Z,1.77
2019-05-28T16:16:57.600Z,1.90
2019-05-28T16:20:59.718Z,1.63
2019-05-28T16:25:01.937Z,1.73
2019-05-28T16:29:04.080Z,2.07
2019-05-28T16:33:06.127Z,2.40
2019-05-28T16:37:08.116Z,1.93
2019-05-28T16:41:10.380Z,2.77
2019-05-28T16:45:13.825Z,1.77
2019-05-28T16:49:15.960Z,1.93
2019-05-28T16:53:18.010Z,2.23
2019-05-28T16:57:20.080Z,1.77
2019-05-28T17:01:23.228Z,1.97
2019-05-28T17:05:25.290Z,2.03
2019-05-28T17:09:27.426Z,2.10
2019-05-28T17:13:29.572Z,2.13
2019-05-28T17:17:31.646Z,2.10
2019-05-28T17:21:33.807Z,1.87
2019-05-28T17:25:36.146Z,2.30
2019-05-28T17:29:38.349Z,2.17
2019-05-28T17:33:40.531Z,2.27
2019-05-28T17:37:42.685Z,2.13
2019-05-28T17:41:46.287Z,2.63
2019-05-28T17:45:49.387Z,2.40
2019-05-28T17:49:52.575Z,2.73
2019-05-28T17:53:54.889Z,2.03
2019-05-28T17:57:57.222Z,2.37
2019-05-28T18:01:59.531Z,2.53
2019-05-28T18:06:01.705Z,2.70
2019-05-28T18:10:03.940Z,2.80
2019-05-28T18:14:06.272Z,2.73
2019-05-28T18:18:08.310Z,3.00
2019-05-28T18:22:10.510Z,2.93
2019-05-28T18:26:12.826Z,3.00
2019-05-28T18:30:16.271Z,2.70
2019-05-28T18:34:18.471Z,2.97
2019-05-28T18:38:20.847Z,3.57
2019-05-28T18:42:23.231Z,3.07
2019-05-28T18:46:26.969Z,3.33
2019-05-28T18:50:29.014Z,3.00
2019-05-28T18:54:31.121Z,3.10
2019-05-28T18:58:35.699Z,2.80
2019-05-28T19:02:37.530Z,2.80
2019-05-28T19:06:39.798Z,2.70
2019-05-28T19:10:41.983Z,2.53
2019-05-28T19:14:44.106Z,2.60
2019-05-28T19:18:46.165Z,2.57
2019-05-28T19:22:48.265Z,3.50
2019-05-28T19:26:50.506Z,3.57
2019-05-28T19:30:52.837Z,3.43
2019-05-28T19:34:55.224Z,3.93
2019-05-28T19:38:58.720Z,3.07
2019-05-28T19:43:00.786Z,3.30
2019-05-28T19:47:03.076Z,3.87
2019-05-28T19:51:06.516Z,3.70
2019-05-28T19:55:09.018Z,3.93
2019-05-28T19:59:11.307Z,4.50
2019-05-28T20:03:14.359Z,3.47
2019-05-28T20:07:16.807Z,3.90
2019-05-28T20:11:18.947Z,4.10
2019-05-28T20:15:23.717Z,3.90
2019-05-28T20:19:25.430Z,3.83
2019-05-28T20:23:27.574Z,3.87
2019-05-28T20:27:29.822Z,3.97
2019-05-28T20:31:32.118Z,4.17
2019-05-28T20:35:34.367Z,4.23
2019-05-28T20:39:36.300Z,4.30
2019-05-28T20:43:38.609Z,4.23
2019-05-28T20:47:40.834Z,4.47
2019-05-28T20:51:42.994Z,4.50
2019-05-28T20:55:45.282Z,4.93
2019-05-28T20:59:47.462Z,4.70
2019-05-28T21:03:49.806Z,4.73
2019-05-28T21:07:53.103Z,5.13
2019-05-28T21:11:56.656Z,5.13
2019-05-28T21:15:59.052Z,5.20
2019-05-28T21:20:01.237Z,4.77
2019-05-28T21:24:03.365Z,5.50
2019-05-28T21:28:05.496Z,5.53
2019-05-28T21:32:07.596Z,5.63
2019-05-28T21:36:09.774Z,5.17
2019-05-28T21:40:12.795Z,5.30
2019-05-28T21:44:15.134Z,4.90
2019-05-28T21:48:17.261Z,5.20
2019-05-28T21:52:19.679Z,5.57
2019-05-28T21:56:21.946Z,4.70
2019-05-28T22:00:37.748Z,5.37
2019-05-28T22:04:41.418Z,4.87
2019-05-28T22:08:43.831Z,4.40
2019-05-28T22:12:46.286Z,5.47
2019-05-28T22:16:48.790Z,5.27
2019-05-28T22:20:53.308Z,5.63
2019-05-28T22:24:56.329Z,4.83
2019-05-28T22:28:59.449Z,5.47
2019-05-28T22:33:02.302Z,5.47
2019-05-28T22:37:04.639Z,5.53
2019-05-28T22:41:08.598Z,5.00
2019-05-28T22:45:11.208Z,5.57
2019-05-28T22:49:14.054Z,6.17
2019-05-28T22:53:16.373Z,6.10
2019-05-28T22:57:18.589Z,5.60
2019-05-28T23:01:20.683Z,5.67
2019-05-28T23:05:22.886Z,6.40
2019-05-28T23:09:25.021Z,6.07
2019-05-28T23:13:27.158Z,6.60
2019-05-28T23:17:29.376Z,6.23
2019-05-28T23:21:31.711Z,5.83
2019-05-28T23:25:33.929Z,7.20
2019-05-28T23:29:36.048Z,6.60
2019-05-28T23:33:38.542Z,6.90
2019-05-28T23:37:40.954Z,6.60
2019-05-28T23:41:43.258Z,6.23
2019-05-28T23:45:45.367Z,6.07
2019-05-28T23:49:47.445Z,6.67
2019-05-28T23:53:49.962Z,7.10
2019-05-28T23:57:52.122Z,6.90
